createdAt,value
2019-03-21T00:02:00.741Z,15.43
2019-03-21T00:04:33.000Z,13.68
2019-03-21T00:07:03.884Z,12.58
2019-03-21T00:09:37.280Z,12.50
2019-03-21T00:12:09.288Z,12.40
2019-03-21T00:15:01.683Z,12.60
2019-03-21T00:17:38.480Z,13.05
2019-03-21T00:20:12.118Z,12.60
2019-03-21T00:22:43.962Z,15.08
2019-03-21T00:25:17.298Z,15.93
2019-03-21T00:27:47.735Z,15.70
2019-03-21T00:30:20.919Z,16.50
2019-03-21T00:32:51.769Z,18.02
2019-03-21T00:35:22.907Z,19.35
2019-03-21T00:37:54.356Z,18.00
2019-03-21T00:40:30.715Z,18.20
2019-03-21T00:43:03.402Z,17.55
2019-03-21T00:45:33.920Z,17.90
2019-03-21T00:48:06.649Z,17.40
2019-03-21T00:50:37.126Z,17.65
2019-03-21T00:53:08.674Z,18.48
2019-03-21T00:55:42.088Z,18.55
2019-03-21T00:58:12.585Z,17.42
2019-03-21T01:00:46.404Z,16.52
2019-03-21T01:03:18.674Z,17.60
2019-03-21T01:05:49.406Z,16.25
2019-03-21T01:08:20.239Z,18.07
2019-03-21T01:10:53.230Z,17.87
2019-03-21T01:13:26.316Z,17.00
2019-03-21T01:15:56.947Z,17.92
2019-03-21T01:18:27.879Z,18.10
2019-03-21T01:20:58.510Z,18.75
2019-03-21T01:23:29.794Z,18.05
2019-03-21T01:26:03.560Z,17.40
2019-03-21T01:28:34.426Z,17.30
2019-03-21T01:31:05.157Z,19.42
2019-03-21T01:33:35.759Z,16.40
2019-03-21T01:36:08.231Z,17.37
2019-03-21T01:38:38.441Z,17.70
2019-03-21T01:41:16.866Z,18.30
2019-03-21T01:43:47.289Z,19.30
2019-03-21T01:46:22.940Z,20.27
2019-03-21T01:48:53.876Z,18.80
2019-03-21T01:51:24.718Z,19.60
2019-03-21T01:53:56.260Z,19.32
2019-03-21T01:56:28.530Z,21.37
2019-03-21T01:58:58.742Z,21.73
2019-03-21T02:01:29.381Z,22.02
2019-03-21T02:04:01.136Z,20.97
2019-03-21T02:06:33.405Z,22.87
2019-03-21T02:09:06.586Z,23.95
2019-03-21T02:11:38.775Z,22.95
2019-03-21T02:14:09.186Z,23.77
2019-03-21T02:16:40.538Z,21.87
2019-03-21T02:19:11.153Z,20.92
2019-03-21T02:21:41.854Z,21.20
2019-03-21T02:24:13.536Z,20.92
2019-03-21T02:26:47.397Z,20.88
2019-03-21T02:29:17.893Z,20.48
2019-03-21T02:31:48.613Z,21.73
2019-03-21T02:34:19.246Z,22.07
2019-03-21T02:36:49.875Z,21.57
2019-03-21T02:39:20.615Z,23.20
2019-03-21T02:41:51.441Z,22.05
2019-03-21T02:44:22.287Z,22.62
2019-03-21T02:46:54.066Z,20.45
2019-03-21T02:49:26.002Z,21.45
2019-03-21T02:51:56.620Z,20.97
2019-03-21T02:54:27.356Z,21.75
2019-03-21T02:56:58.598Z,22.82
2019-03-21T02:59:29.140Z,22.32
2019-03-21T03:01:59.859Z,22.60
2019-03-21T03:04:30.594Z,23.30
2019-03-21T03:07:01.442Z,23.47
2019-03-21T03:09:32.880Z,23.67
2019-03-21T03:12:03.505Z,23.77
2019-03-21T03:14:34.238Z,24.87
2019-03-21T03:17:04.972Z,25.92
2019-03-21T03:19:35.710Z,26.68
2019-03-21T03:22:06.027Z,26.87
2019-03-21T03:24:36.555Z,27.40
2019-03-21T03:27:06.987Z,25.75
2019-03-21T03:29:38.059Z,26.12
2019-03-21T03:32:08.930Z,26.65
2019-03-21T03:34:39.598Z,26.73
2019-03-21T03:37:10.120Z,26.30
2019-03-21T03:39:41.578Z,25.05
2019-03-21T03:42:12.094Z,27.85
2019-03-21T03:44:44.075Z,27.27
2019-03-21T03:47:14.374Z,26.68
2019-03-21T03:49:45.211Z,27.58
2019-03-21T03:52:16.865Z,27.32
2019-03-21T03:54:47.289Z,26.00
2019-03-21T03:57:18.627Z,26.87
2019-03-21T03:59:49.160Z,28.30
2019-03-21T04:02:20.099Z,27.00
2019-03-21T04:04:51.758Z,26.48
2019-03-21T04:07:22.489Z,26.95
2019-03-21T04:09:55.984Z,26.27
2019-03-21T04:12:28.362Z,27.50
2019-03-21T04:14:58.789Z,27.93
2019-03-21T04:17:30.232Z,26.75
2019-03-21T04:20:00.570Z,28.90
2019-03-21T04:22:31.178Z,29.67
2019-03-21T04:25:04.784Z,27.70
2019-03-21T04:27:35.417Z,20.08
2019-03-21T04:30:09.129Z,25.27
2019-03-21T04:32:41.076Z,25.20
2019-03-21T04:35:13.356Z,25.20
2019-03-21T04:37:44.694Z,25.25
2019-03-21T04:40:17.195Z,25.23
2019-03-21T04:42:47.506Z,23.75
2019-03-21T04:45:23.136Z,24.18
2019-03-21T04:47:53.563Z,22.77
2019-03-21T04:50:35.353Z,22.82
2019-03-21T04:53:06.094Z,24.02
2019-03-21T04:55:37.538Z,23.73
2019-03-21T04:58:08.473Z,22.02
2019-03-21T05:00:43.559Z,20.92
2019-03-21T05:03:16.591Z,20.17
2019-03-21T05:05:47.331Z,19.87
2019-03-21T05:08:18.712Z,19.77
2019-03-21T05:10:50.534Z,19.98
2019-03-21T05:13:21.366Z,20.15
2019-03-21T05:15:53.386Z,19.62
2019-03-21T05:18:32.456Z,21.30
2019-03-21T05:21:04.809Z,19.10
2019-03-21T05:23:35.252Z,18.75
2019-03-21T05:26:07.935Z,19.55
2019-03-21T05:28:38.869Z,18.40
2019-03-21T05:31:28.449Z,15.18
2019-03-21T05:33:58.820Z,17.32
2019-03-21T05:36:29.702Z,17.80
2019-03-21T05:39:00.544Z,16.17
2019-03-21T05:41:32.705Z,15.40
2019-03-21T05:44:27.240Z,15.53
2019-03-21T05:46:58.171Z,16.65
2019-03-21T05:49:28.674Z,15.43
2019-03-21T05:52:00.311Z,15.00
2019-03-21T05:54:30.634Z,15.55
2019-03-21T05:57:01.152Z,15.15
2019-03-21T05:59:31.648Z,14.70
2019-03-21T06:02:03.938Z,16.73
2019-03-21T06:04:34.427Z,17.05
2019-03-21T06:07:14.230Z,15.98
2019-03-21T06:09:45.580Z,13.25
2019-03-21T06:12:16.209Z,13.50
2019-03-21T06:14:52.986Z,13.48
2019-03-21T06:17:23.720Z,16.70
2019-03-21T06:20:21.823Z,17.02
2019-03-21T06:22:56.416Z,17.45
2019-03-21T06:25:47.723Z,15.32
2019-03-21T06:28:18.311Z,16.00
2019-03-21T06:30:49.802Z,14.98
2019-03-21T06:33:20.234Z,14.20
2019-03-21T06:35:54.433Z,15.25
2019-03-21T06:38:24.970Z,15.08
2019-03-21T06:40:56.523Z,14.70
2019-03-21T06:43:28.677Z,13.83
2019-03-21T06:46:00.899Z,11.90
2019-03-21T06:48:32.304Z,13.90
2019-03-21T06:51:02.732Z,13.25
2019-03-21T06:53:34.178Z,13.22
2019-03-21T06:56:04.661Z,15.38
2019-03-21T06:58:35.444Z,12.53
2019-03-21T07:01:06.318Z,13.28
2019-03-21T07:03:37.578Z,11.83
2019-03-21T07:06:08.354Z,10.85
2019-03-21T07:08:39.906Z,12.30
2019-03-21T07:11:10.779Z,10.48
2019-03-21T07:13:41.439Z,10.78
2019-03-21T07:16:12.202Z,7.05
2019-03-21T07:18:43.387Z,8.40
2019-03-21T07:21:13.777Z,8.40
2019-03-21T07:23:44.349Z,8.38
2019-03-21T07:26:14.831Z,8.58
2019-03-21T07:28:46.997Z,10.68
2019-03-21T07:31:17.729Z,11.33
2019-03-21T07:33:48.152Z,10.60
2019-03-21T07:36:18.887Z,11.20
2019-03-21T07:38:49.618Z,9.98
2019-03-21T07:41:21.781Z,8.18
2019-03-21T07:43:52.114Z,7.53
2019-03-21T07:46:22.883Z,10.30
2019-03-21T07:48:53.477Z,6.87
2019-03-21T07:51:24.510Z,5.62
2019-03-21T07:53:55.249Z,7.12
2019-03-21T07:56:25.705Z,5.22
2019-03-21T07:58:57.826Z,5.22
2019-03-21T08:01:28.257Z,6.95
2019-03-21T08:03:58.795Z,6.22
2019-03-21T08:06:30.189Z,5.87
2019-03-21T08:12:41.504Z,7.17
2019-03-21T08:15:16.145Z,6.65
2019-03-21T08:17:49.729Z,6.97
2019-03-21T08:20:21.183Z,7.35
2019-03-21T08:22:52.419Z,7.03
2019-03-21T08:25:24.180Z,7.83
2019-03-21T08:27:55.315Z,7.55
2019-03-21T08:30:29.233Z,8.25
2019-03-21T08:35:32.173Z,9.13
2019-03-21T08:38:04.502Z,7.28
2019-03-21T08:40:35.701Z,6.90
2019-03-21T08:43:06.269Z,8.10
2019-03-21T08:45:37.106Z,7.78
2019-03-21T08:48:07.338Z,9.13
2019-03-21T08:50:40.306Z,6.08
2019-03-21T08:53:10.837Z,5.87
2019-03-21T08:55:42.284Z,6.50
2019-03-21T08:58:14.359Z,6.65
2019-03-21T09:00:47.069Z,6.25
2019-03-21T09:03:18.886Z,6.97
2019-03-21T09:05:49.418Z,6.58
2019-03-21T09:08:20.046Z,8.05
2019-03-21T09:10:51.497Z,6.78
2019-03-21T09:13:23.087Z,7.28
2019-03-21T09:15:53.886Z,7.42
2019-03-21T09:18:25.023Z,10.35
2019-03-21T09:20:55.611Z,8.45
2019-03-21T09:23:27.367Z,7.10
2019-03-21T09:25:58.251Z,7.75
2019-03-21T09:28:30.617Z,10.10
2019-03-21T09:31:01.450Z,9.55
2019-03-21T09:33:33.122Z,8.88
2019-03-21T09:36:03.636Z,8.15
2019-03-21T09:38:36.317Z,8.63
2019-03-21T09:43:39.701Z,8.13
2019-03-21T09:46:14.547Z,8.95
2019-03-21T09:48:45.300Z,9.23
2019-03-21T09:51:16.530Z,8.60
2019-03-21T09:53:48.395Z,9.15
2019-03-21T09:56:23.876Z,8.08
2019-03-21T09:58:55.951Z,8.45
2019-03-21T10:01:27.150Z,8.33
2019-03-21T10:03:59.651Z,8.43
2019-03-21T10:06:31.075Z,8.75
2019-03-21T10:24:18.715Z,11.38
2019-03-21T10:26:49.730Z,11.97
2019-03-21T10:29:25.773Z,10.35
2019-03-21T10:31:58.580Z,9.28
2019-03-21T10:34:30.533Z,10.30
2019-03-21T10:37:01.269Z,10.38
2019-03-21T10:39:34.987Z,11.95
2019-03-21T10:42:05.645Z,9.75
2019-03-21T10:44:38.047Z,8.90
2019-03-21T10:47:11.229Z,9.30
2019-03-21T10:49:43.639Z,8.80
2019-03-21T10:52:14.224Z,10.63
2019-03-21T10:54:45.510Z,11.33
2019-03-21T10:57:18.122Z,13.45
2019-03-21T10:59:48.813Z,8.55
2019-03-21T11:02:19.182Z,7.83
2019-03-21T11:04:50.177Z,7.60
2019-03-21T11:07:21.331Z,7.75
2019-03-21T11:09:52.598Z,7.95
2019-03-21T11:12:23.432Z,7.42
2019-03-21T11:14:54.140Z,7.47
2019-03-21T11:17:26.401Z,8.00
2019-03-21T11:19:57.136Z,6.83
2019-03-21T11:22:27.764Z,7.08
2019-03-21T11:24:58.603Z,7.17
2019-03-21T11:27:30.158Z,8.28
2019-03-21T11:30:02.319Z,9.98
2019-03-21T11:32:32.694Z,11.08
2019-03-21T11:35:08.170Z,12.63
2019-03-21T11:37:40.660Z,11.10
2019-03-21T11:40:11.633Z,10.75
2019-03-21T11:42:42.241Z,11.38
2019-03-21T11:45:15.754Z,12.80
2019-03-21T11:47:46.678Z,10.98
2019-03-21T11:50:17.915Z,10.93
2019-03-21T11:52:49.054Z,10.40
2019-03-21T11:55:20.113Z,11.25
2019-03-21T11:57:52.349Z,9.15
2019-03-21T12:00:23.192Z,9.30
2019-03-21T12:02:54.643Z,10.10
2019-03-21T12:05:25.823Z,10.95
2019-03-21T12:07:56.487Z,9.90
2019-03-21T12:10:27.282Z,10.23
2019-03-21T12:13:00.440Z,9.13
2019-03-21T12:15:31.360Z,10.03
2019-03-21T12:18:03.303Z,10.55
2019-03-21T12:20:34.684Z,12.75
2019-03-21T12:23:05.315Z,12.63
2019-03-21T12:25:36.558Z,12.23
2019-03-21T12:28:07.911Z,11.88
2019-03-21T12:30:39.628Z,11.93
2019-03-21T12:33:09.990Z,12.20
2019-03-21T12:35:41.547Z,12.30
2019-03-21T12:38:12.103Z,13.25
2019-03-21T12:40:43.511Z,12.63
2019-03-21T12:43:14.246Z,11.22
2019-03-21T12:45:45.097Z,12.90
2019-03-21T12:48:15.928Z,11.45
2019-03-21T12:50:48.389Z,11.30
2019-03-21T12:53:19.225Z,17.85
2019-03-21T12:55:51.806Z,16.15
2019-03-21T12:58:22.633Z,16.97
2019-03-21T13:00:55.358Z,15.32
2019-03-21T13:03:26.772Z,18.48
2019-03-21T13:05:57.279Z,22.50
2019-03-21T13:08:33.723Z,24.52
2019-03-21T13:11:01.236Z,22.17
2019-03-21T13:13:31.622Z,21.05
2019-03-21T13:16:02.266Z,19.35
2019-03-21T13:18:33.203Z,17.30
2019-03-21T13:21:03.940Z,17.62
2019-03-21T13:23:34.573Z,16.97
2019-03-21T13:26:05.301Z,15.58
2019-03-21T13:28:36.138Z,11.33
2019-03-21T13:31:07.772Z,10.00
2019-03-21T13:33:38.526Z,10.08
2019-03-21T13:36:09.165Z,9.55
2019-03-21T13:38:39.992Z,8.95
2019-03-21T13:41:10.726Z,10.53
2019-03-21T13:43:41.474Z,11.45
2019-03-21T13:46:12.288Z,9.55
2019-03-21T13:48:43.227Z,11.55
2019-03-21T13:51:16.311Z,11.47
2019-03-21T13:53:47.981Z,13.48
2019-03-21T13:56:18.600Z,13.20
2019-03-21T13:58:49.473Z,13.18
2019-03-21T14:01:21.770Z,13.05
2019-03-21T14:03:54.694Z,13.25
2019-03-21T14:06:25.931Z,14.55
2019-03-21T14:08:56.793Z,13.83
2019-03-21T14:11:29.663Z,14.35
2019-03-21T14:14:00.542Z,13.72
2019-03-21T14:16:31.775Z,12.82
2019-03-21T14:19:03.261Z,14.68
2019-03-21T14:21:33.637Z,15.38
2019-03-21T14:24:04.333Z,16.02
2019-03-21T14:26:34.971Z,14.45
2019-03-21T14:29:12.528Z,17.17
2019-03-21T14:31:41.050Z,15.18
2019-03-21T14:34:11.875Z,16.35
2019-03-21T14:36:43.222Z,14.25
2019-03-21T14:39:13.544Z,15.00
2019-03-21T14:41:44.281Z,15.38
2019-03-21T14:44:15.634Z,15.75
2019-03-21T14:46:46.158Z,16.45
2019-03-21T14:49:17.093Z,15.05
2019-03-21T14:51:48.742Z,15.55
2019-03-21T14:54:19.478Z,16.93
2019-03-21T14:56:51.845Z,15.15
2019-03-21T14:59:22.478Z,17.35
2019-03-21T15:01:53.205Z,18.12
2019-03-21T15:04:24.656Z,17.10
2019-03-21T15:06:55.255Z,18.42
2019-03-21T15:09:26.850Z,17.15
2019-03-21T15:11:57.752Z,18.62
2019-03-21T15:14:31.935Z,15.35
2019-03-21T15:17:01.936Z,13.15
2019-03-21T15:19:32.482Z,12.30
2019-03-21T15:22:03.180Z,13.70
2019-03-21T15:24:36.053Z,12.35
2019-03-21T15:27:06.848Z,13.05
2019-03-21T15:29:37.417Z,13.90
2019-03-21T15:32:10.394Z,14.63
2019-03-21T15:34:42.163Z,14.78
2019-03-21T15:37:14.125Z,14.20
2019-03-21T15:39:45.100Z,14.03
2019-03-21T15:42:15.781Z,15.03
2019-03-21T15:44:46.515Z,16.57
2019-03-21T15:47:17.156Z,17.17
2019-03-21T15:49:47.919Z,17.15
2019-03-21T15:52:18.722Z,18.02
2019-03-21T15:54:50.760Z,16.77
2019-03-21T15:57:21.509Z,14.98
2019-03-21T15:59:52.586Z,15.18
2019-03-21T16:02:23.893Z,16.30
2019-03-21T16:04:54.934Z,16.10
2019-03-21T16:07:25.743Z,16.95
2019-03-21T16:09:56.362Z,15.80
2019-03-21T16:12:27.743Z,16.17
2019-03-21T16:14:58.478Z,15.95
2019-03-21T16:17:29.425Z,16.82
2019-03-21T16:20:00.046Z,16.02
2019-03-21T16:22:31.292Z,15.63
2019-03-21T16:25:03.455Z,17.17
2019-03-21T16:27:34.193Z,18.05
2019-03-21T16:30:07.500Z,17.98
2019-03-21T16:35:09.354Z,19.67
2019-03-21T16:37:39.887Z,18.80
2019-03-21T16:40:13.318Z,19.62
2019-03-21T16:42:45.251Z,20.90
2019-03-21T16:45:17.068Z,19.73
2019-03-21T16:47:48.958Z,20.97
2019-03-21T16:50:20.921Z,21.85
2019-03-21T16:52:51.959Z,21.75
2019-03-21T16:55:24.338Z,21.50
2019-03-21T16:57:56.903Z,22.40
2019-03-21T17:00:27.542Z,21.90
2019-03-21T17:02:58.150Z,24.72
2019-03-21T17:05:29.823Z,23.25
2019-03-21T17:08:10.616Z,25.37
2019-03-21T17:10:33.332Z,25.75
2019-03-21T17:13:06.491Z,25.23
2019-03-21T17:15:38.313Z,25.05
2019-03-21T17:18:09.669Z,25.37
2019-03-21T17:20:41.012Z,26.17
2019-03-21T17:23:11.912Z,25.95
2019-03-21T17:25:42.954Z,26.82
2019-03-21T17:28:15.942Z,27.75
2019-03-21T17:30:46.462Z,28.05
2019-03-21T17:33:17.102Z,29.15
2019-03-21T17:35:48.542Z,28.98
2019-03-21T17:38:19.275Z,25.75
2019-03-21T17:40:50.524Z,24.82
2019-03-21T17:43:23.616Z,24.95
2019-03-21T17:45:56.708Z,24.18
2019-03-21T17:48:28.986Z,23.42
2019-03-21T17:50:59.268Z,26.35
2019-03-21T17:53:31.044Z,24.90
2019-03-21T17:56:01.701Z,21.62
2019-03-21T17:58:32.410Z,19.62
2019-03-21T18:01:03.304Z,19.42
2019-03-21T18:03:34.182Z,19.98
2019-03-21T18:06:04.921Z,17.62
2019-03-21T18:08:35.534Z,19.15
2019-03-21T18:11:06.279Z,17.10
2019-03-21T18:13:39.567Z,15.78
2019-03-21T18:16:10.508Z,16.80
2019-03-21T18:18:41.650Z,16.62
2019-03-21T18:21:12.391Z,17.20
2019-03-21T18:23:42.734Z,18.82
2019-03-21T18:26:13.741Z,18.87
2019-03-21T18:28:44.985Z,19.37
2019-03-21T18:31:15.411Z,18.35
2019-03-21T18:33:46.144Z,17.32
2019-03-21T18:36:16.674Z,16.60
2019-03-21T18:38:58.702Z,16.42
2019-03-21T18:41:21.108Z,13.00
2019-03-21T18:43:51.839Z,16.25
2019-03-21T18:46:22.433Z,14.58
2019-03-21T18:48:53.715Z,16.77
2019-03-21T18:51:24.651Z,15.60
2019-03-21T18:53:56.882Z,15.70
2019-03-21T18:56:27.299Z,14.60
2019-03-21T18:58:57.987Z,15.58
2019-03-21T19:01:29.114Z,15.93
2019-03-21T19:04:00.568Z,14.65
2019-03-21T19:06:31.298Z,13.72
2019-03-21T19:09:02.044Z,13.85
2019-03-21T19:11:32.623Z,12.88
2019-03-21T19:14:04.011Z,13.08
2019-03-21T19:16:34.334Z,12.82
2019-03-21T19:19:05.911Z,12.28
2019-03-21T19:21:36.417Z,12.20
2019-03-21T19:24:07.555Z,13.95
2019-03-21T19:26:38.699Z,12.13
2019-03-21T19:29:11.811Z,12.05
2019-03-21T19:31:42.906Z,12.03
2019-03-21T19:34:13.558Z,11.90
2019-03-21T19:36:44.634Z,11.97
2019-03-21T19:39:15.118Z,10.80
2019-03-21T19:41:48.306Z,11.43
2019-03-21T19:44:19.664Z,12.13
2019-03-21T19:46:50.493Z,11.57
2019-03-21T19:49:21.183Z,10.32
2019-03-21T19:51:52.070Z,10.63
2019-03-21T19:54:22.694Z,11.00
2019-03-21T19:56:54.261Z,10.08
2019-03-21T19:59:24.568Z,9.85
2019-03-21T20:01:55.299Z,11.03
2019-03-21T20:04:26.035Z,10.85
2019-03-21T20:06:58.166Z,12.40
2019-03-21T20:09:28.396Z,11.20
2019-03-21T20:11:59.065Z,13.08
2019-03-21T20:14:30.793Z,11.12
2019-03-21T20:17:01.744Z,11.25
2019-03-21T20:19:32.476Z,11.00
2019-03-21T20:22:03.215Z,10.58
2019-03-21T20:24:33.658Z,11.00
2019-03-21T20:27:04.467Z,10.75
2019-03-21T20:29:35.203Z,10.63
2019-03-21T20:32:07.471Z,11.65
2019-03-21T20:34:37.798Z,11.48
2019-03-21T20:37:08.420Z,11.35
2019-03-21T20:39:39.154Z,11.78
2019-03-21T20:42:09.849Z,12.90
2019-03-21T20:44:41.286Z,12.82
2019-03-21T20:47:12.503Z,13.93
2019-03-21T20:49:45.466Z,12.75
2019-03-21T20:52:16.199Z,11.97
2019-03-21T20:54:46.915Z,12.20
2019-03-21T20:57:18.464Z,12.73
2019-03-21T20:59:49.221Z,13.13
2019-03-21T21:02:20.049Z,13.80
2019-03-21T21:04:50.678Z,13.48
2019-03-21T21:07:21.413Z,14.25
2019-03-21T21:09:52.147Z,17.07
2019-03-21T21:12:23.387Z,15.58
2019-03-21T21:14:54.201Z,15.75
2019-03-21T21:17:26.088Z,15.72
2019-03-21T21:19:57.148Z,17.07
2019-03-21T21:22:28.474Z,15.08
2019-03-21T21:24:59.215Z,14.10
2019-03-21T21:27:30.527Z,15.15
2019-03-21T21:30:01.386Z,14.83
2019-03-21T21:32:33.140Z,15.08
2019-03-21T21:35:04.499Z,15.28
2019-03-21T21:37:34.912Z,15.72
2019-03-21T21:40:07.657Z,15.88
2019-03-21T21:42:38.769Z,16.32
2019-03-21T21:45:11.387Z,16.35
2019-03-21T21:47:41.835Z,16.85
2019-03-21T21:50:18.555Z,15.80
2019-03-21T21:52:51.141Z,16.50
2019-03-21T21:55:22.943Z,15.08
2019-03-21T21:57:53.267Z,15.25
2019-03-21T22:00:26.459Z,11.08
2019-03-21T22:02:57.189Z,13.25
2019-03-21T22:05:29.695Z,12.82
2019-03-21T22:10:31.437Z,11.73
2019-03-21T22:13:02.570Z,11.65
2019-03-21T22:15:33.310Z,12.82
2019-03-21T22:18:04.038Z,14.40
2019-03-21T22:20:34.520Z,14.95
2019-03-21T22:23:05.406Z,17.32
2019-03-21T22:25:36.034Z,19.27
2019-03-21T22:28:10.017Z,20.92
2019-03-21T22:30:39.649Z,21.33
2019-03-21T22:33:10.623Z,23.00
2019-03-21T22:35:43.491Z,18.02
2019-03-21T22:38:15.538Z,22.37
2019-03-21T22:40:46.060Z,20.97
2019-03-21T22:43:16.692Z,21.77
2019-03-21T22:45:48.651Z,21.33
2019-03-21T22:48:18.863Z,20.90
2019-03-21T22:50:49.604Z,19.73
2019-03-21T22:53:20.336Z,20.10
2019-03-21T22:55:50.980Z,20.68
2019-03-21T22:58:31.363Z,20.17
2019-03-21T23:00:54.996Z,20.32
2019-03-21T23:03:25.522Z,21.85
2019-03-21T23:05:56.564Z,20.92
2019-03-21T23:08:28.006Z,22.02
2019-03-21T23:10:58.246Z,20.68
2019-03-21T23:13:29.275Z,21.70
2019-03-21T23:16:00.415Z,21.17
2019-03-21T23:18:32.375Z,20.70
2019-03-21T23:21:03.330Z,20.68
2019-03-21T23:23:33.940Z,22.20
2019-03-21T23:26:05.082Z,23.65
2019-03-21T23:28:36.435Z,30.30
2019-03-21T23:31:07.164Z,29.57
2019-03-21T23:33:38.205Z,31.93
2019-03-21T23:36:10.779Z,30.27
2019-03-21T23:38:41.271Z,30.90
2019-03-21T23:41:12.045Z,27.80
2019-03-21T23:43:44.004Z,24.55
2019-03-21T23:46:15.659Z,25.60
2019-03-21T23:48:46.062Z,26.60
2019-03-21T23:51:16.709Z,24.20
2019-03-21T23:53:48.465Z,23.20
2019-03-21T23:56:18.789Z,22.27
2019-03-21T23:58:49.522Z,22.13
